EZY219 EGGD-EGPH
Flight info
| Callsign | EZY219 |
|---|---|
| Flight time | 0h 55m |
| Altitude | 32000 |
| Route | BCN P69 DIZIM N864 KISWO DCT AVTIC DCT ANJAK N38 NOKIN UP16 RIBEL DCT INPIP |
| Aircraft | A320/M-SDE2E3FGHIJ1RWXYZ/LB1 |
Departure
| Time | 2026-04-22 17:47 |
|---|---|
| Airport | Bristol Airport (EGGD) |
Arrival
| Time | 2026-04-22 18:42 |
|---|---|
| Airport | Edinburgh Airport (EGPH) |
| Time | Latitude | Longitude | Altitude | Speed | Heading |
|---|---|---|---|---|---|
| 2026-04-22 16:54 | 51.38521 | -2.71141 | 619 ft | 0 kts | 356° |
| 2026-04-22 17:34 | 51.38519 | -2.71141 | 611 ft | 1 kts | 356° |
| 2026-04-22 17:35 | 51.38503 | -2.71140 | 627 ft | 3 kts | 356° |
| 2026-04-22 17:35 | 51.38483 | -2.71138 | 623 ft | 3 kts | 352° |
| 2026-04-22 17:35 | 51.38467 | -2.71130 | 628 ft | 3 kts | 312° |
| 2026-04-22 17:35 | 51.38459 | -2.71107 | 625 ft | 2 kts | 269° |
| 2026-04-22 17:36 | 51.38460 | -2.71091 | 622 ft | 1 kts | 266° |
| 2026-04-22 17:36 | 51.38460 | -2.71087 | 621 ft | 0 kts | 266° |
| 2026-04-22 17:41 | 51.38459 | -2.71098 | 615 ft | 4 kts | 266° |
| 2026-04-22 17:41 | 51.38457 | -2.71145 | 615 ft | 9 kts | 266° |
| 2026-04-22 17:41 | 51.38451 | -2.71290 | 622 ft | 16 kts | 266° |
| 2026-04-22 17:42 | 51.38443 | -2.71509 | 615 ft | 19 kts | 266° |
| 2026-04-22 17:42 | 51.38437 | -2.71692 | 611 ft | 17 kts | 265° |
| 2026-04-22 17:42 | 51.38431 | -2.71873 | 606 ft | 16 kts | 270° |
| 2026-04-22 17:42 | 51.38431 | -2.72039 | 605 ft | 15 kts | 268° |
| 2026-04-22 17:43 | 51.38426 | -2.72190 | 611 ft | 12 kts | 266° |
| 2026-04-22 17:43 | 51.38420 | -2.72332 | 610 ft | 13 kts | 266° |
| 2026-04-22 17:43 | 51.38414 | -2.72475 | 612 ft | 13 kts | 266° |
| 2026-04-22 17:43 | 51.38408 | -2.72642 | 620 ft | 17 kts | 266° |
| 2026-04-22 17:44 | 51.38400 | -2.72852 | 605 ft | 21 kts | 266° |
| 2026-04-22 17:44 | 51.38390 | -2.73089 | 605 ft | 17 kts | 265° |
| 2026-04-22 17:44 | 51.38387 | -2.73169 | 608 ft | 0 kts | 267° |
| 2026-04-22 17:45 | 51.38387 | -2.73170 | 608 ft | 0 kts | 267° |
| 2026-04-22 17:45 | 51.38386 | -2.73187 | 609 ft | 3 kts | 267° |
| 2026-04-22 17:45 | 51.38382 | -2.73245 | 625 ft | 7 kts | 257° |
| 2026-04-22 17:45 | 51.38350 | -2.73320 | 624 ft | 9 kts | 220° |
| 2026-04-22 17:46 | 51.38283 | -2.73343 | 619 ft | 11 kts | 174° |
| 2026-04-22 17:46 | 51.38219 | -2.73276 | 629 ft | 12 kts | 114° |
| 2026-04-22 17:46 | 51.38218 | -2.73218 | 628 ft | 0 kts | 86° |
| 2026-04-22 17:46 | 51.38218 | -2.73206 | 626 ft | 12 kts | 86° |
| 2026-04-22 17:47 | 51.38240 | -2.72626 | 631 ft | 89 kts | 86° |
| 2026-04-22 17:47 | 51.38293 | -2.71280 | 631 ft | 148 kts | 86° |
| 2026-04-22 17:47 | 51.38378 | -2.69638 | 1397 ft | 147 kts | 88° |
| 2026-04-22 17:47 | 51.38433 | -2.67994 | 2119 ft | 153 kts | 88° |
| 2026-04-22 17:48 | 51.38481 | -2.66176 | 2496 ft | 174 kts | 88° |
| 2026-04-22 17:48 | 51.38536 | -2.64102 | 2827 ft | 199 kts | 89° |
| 2026-04-22 17:48 | 51.38600 | -2.61751 | 3293 ft | 224 kts | 88° |
| 2026-04-22 17:48 | 51.38675 | -2.59181 | 4015 ft | 236 kts | 89° |
| 2026-04-22 17:49 | 51.38893 | -2.56545 | 4916 ft | 247 kts | 72° |
| 2026-04-22 17:49 | 51.39977 | -2.54348 | 5718 ft | 269 kts | 38° |
| 2026-04-22 17:49 | 51.41808 | -2.53416 | 6529 ft | 289 kts | 4° |
| 2026-04-22 17:49 | 51.43778 | -2.54225 | 7326 ft | 301 kts | 329° |
| 2026-04-22 17:50 | 51.45272 | -2.56511 | 8190 ft | 303 kts | 304° |
| 2026-04-22 17:50 | 51.46338 | -2.59413 | 9096 ft | 304 kts | 295° |
| 2026-04-22 17:50 | 51.47255 | -2.62498 | 9985 ft | 308 kts | 293° |
| 2026-04-22 17:50 | 51.48191 | -2.65620 | 10591 ft | 321 kts | 295° |
| 2026-04-22 17:51 | 51.49267 | -2.68889 | 10939 ft | 341 kts | 298° |
| 2026-04-22 17:51 | 51.50482 | -2.72221 | 11623 ft | 348 kts | 300° |
| 2026-04-22 17:51 | 51.51782 | -2.75530 | 12404 ft | 352 kts | 302° |
| 2026-04-22 17:51 | 51.53142 | -2.78841 | 13125 ft | 358 kts | 302° |
| 2026-04-22 17:52 | 51.54543 | -2.82188 | 13929 ft | 363 kts | 303° |
| 2026-04-22 17:52 | 51.55962 | -2.85573 | 14636 ft | 367 kts | 302° |
| 2026-04-22 17:52 | 51.57386 | -2.88994 | 15380 ft | 368 kts | 303° |
| 2026-04-22 17:52 | 51.58798 | -2.92406 | 16161 ft | 368 kts | 302° |
| 2026-04-22 17:53 | 51.60217 | -2.95860 | 16799 ft | 372 kts | 302° |
| 2026-04-22 17:53 | 51.61648 | -2.99365 | 17430 ft | 376 kts | 302° |
| 2026-04-22 17:53 | 51.63087 | -3.02900 | 18069 ft | 380 kts | 302° |
| 2026-04-22 17:53 | 51.64544 | -3.06486 | 18708 ft | 384 kts | 302° |
| 2026-04-22 17:54 | 51.66005 | -3.10095 | 19271 ft | 387 kts | 301° |
| 2026-04-22 17:54 | 51.67476 | -3.13738 | 19863 ft | 389 kts | 301° |
| 2026-04-22 17:54 | 51.68977 | -3.17375 | 20446 ft | 391 kts | 305° |
| 2026-04-22 17:54 | 51.70853 | -3.20569 | 21006 ft | 396 kts | 319° |
| 2026-04-22 17:55 | 51.73139 | -3.22931 | 21590 ft | 398 kts | 334° |
| 2026-04-22 17:55 | 51.75802 | -3.24385 | 22162 ft | 401 kts | 348° |
| 2026-04-22 17:55 | 51.78587 | -3.24738 | 22691 ft | 404 kts | 2° |
| 2026-04-22 17:55 | 51.81343 | -3.24164 | 23135 ft | 409 kts | 8° |
| 2026-04-22 17:56 | 51.84160 | -3.23454 | 23669 ft | 411 kts | 8° |
| 2026-04-22 17:56 | 51.86995 | -3.22743 | 24107 ft | 415 kts | 8° |
| 2026-04-22 17:56 | 51.89856 | -3.22035 | 24538 ft | 416 kts | 8° |
| 2026-04-22 17:56 | 51.92725 | -3.21327 | 24979 ft | 418 kts | 7° |
| 2026-04-22 17:57 | 51.95588 | -3.20623 | 25377 ft | 420 kts | 7° |
| 2026-04-22 17:57 | 51.98480 | -3.19916 | 25828 ft | 421 kts | 7° |
| 2026-04-22 17:57 | 52.01387 | -3.19203 | 26225 ft | 423 kts | 7° |
| 2026-04-22 17:57 | 52.04278 | -3.18550 | 26632 ft | 424 kts | 3° |
| 2026-04-22 17:58 | 52.07231 | -3.18296 | 27026 ft | 426 kts | 1° |
| 2026-04-22 17:58 | 52.10192 | -3.18069 | 27436 ft | 427 kts | 1° |
| 2026-04-22 17:58 | 52.13164 | -3.17841 | 27865 ft | 429 kts | 1° |
| 2026-04-22 17:58 | 52.16153 | -3.17613 | 28254 ft | 430 kts | 1° |
| 2026-04-22 17:59 | 52.19152 | -3.17384 | 28669 ft | 432 kts | 1° |
| 2026-04-22 17:59 | 52.22142 | -3.17152 | 29052 ft | 434 kts | 1° |
| 2026-04-22 17:59 | 52.25164 | -3.16916 | 29449 ft | 435 kts | 1° |
| 2026-04-22 17:59 | 52.28202 | -3.16681 | 29740 ft | 440 kts | 0° |
| 2026-04-22 18:00 | 52.30232 | -3.16525 | 29922 ft | 442 kts | 0° |
| 2026-04-22 18:00 | 52.34357 | -3.16205 | 30411 ft | 445 kts | 0° |
| 2026-04-22 18:00 | 52.37453 | -3.15962 | 30694 ft | 447 kts | 0° |
| 2026-04-22 18:00 | 52.40562 | -3.15715 | 31016 ft | 448 kts | 0° |
| 2026-04-22 18:01 | 52.43679 | -3.15472 | 31321 ft | 449 kts | 0° |
| 2026-04-22 18:01 | 52.46801 | -3.15231 | 31620 ft | 450 kts | 0° |
| 2026-04-22 18:01 | 52.49934 | -3.14991 | 31966 ft | 450 kts | 360° |
| 2026-04-22 18:01 | 52.53058 | -3.14751 | 32266 ft | 450 kts | 360° |
| 2026-04-22 18:02 | 52.56168 | -3.14507 | 32330 ft | 440 kts | 360° |
| 2026-04-22 18:02 | 52.59172 | -3.14259 | 32333 ft | 426 kts | 360° |
| 2026-04-22 18:02 | 52.62112 | -3.14018 | 32336 ft | 421 kts | 360° |
| 2026-04-22 18:03 | 52.67943 | -3.13558 | 32338 ft | 419 kts | 360° |
| 2026-04-22 18:03 | 52.73673 | -3.11740 | 32351 ft | 425 kts | 18° |
| 2026-04-22 18:04 | 52.79070 | -3.07610 | 32348 ft | 429 kts | 22° |
| 2026-04-22 18:04 | 52.84456 | -3.03379 | 32353 ft | 428 kts | 22° |
| 2026-04-22 18:05 | 52.89808 | -2.99222 | 32374 ft | 426 kts | 19° |
| 2026-04-22 18:05 | 52.95379 | -2.95819 | 32387 ft | 423 kts | 17° |
| 2026-04-22 18:06 | 53.00900 | -2.92457 | 32394 ft | 422 kts | 17° |
| 2026-04-22 18:06 | 53.06369 | -2.89091 | 32391 ft | 422 kts | 17° |
| 2026-04-22 18:07 | 53.10978 | -2.86248 | 32389 ft | 421 kts | 17° |
| 2026-04-22 18:07 | 53.17363 | -2.82300 | 32383 ft | 421 kts | 17° |
| 2026-04-22 18:08 | 53.22822 | -2.78912 | 32379 ft | 421 kts | 17° |
| 2026-04-22 18:08 | 53.28313 | -2.75492 | 32379 ft | 421 kts | 17° |
| 2026-04-22 18:09 | 53.33801 | -2.72062 | 32384 ft | 421 kts | 17° |
| 2026-04-22 18:09 | 53.39291 | -2.68634 | 32384 ft | 421 kts | 17° |
| 2026-04-22 18:10 | 53.44774 | -2.65189 | 32377 ft | 421 kts | 17° |
| 2026-04-22 18:10 | 53.50263 | -2.61730 | 32378 ft | 421 kts | 17° |
| 2026-04-22 18:11 | 53.55752 | -2.58283 | 32382 ft | 421 kts | 17° |
| 2026-04-22 18:11 | 53.61224 | -2.54824 | 32408 ft | 419 kts | 17° |
| 2026-04-22 18:12 | 53.66672 | -2.51367 | 32410 ft | 418 kts | 17° |
| 2026-04-22 18:12 | 53.71228 | -2.48471 | 32421 ft | 417 kts | 17° |
| 2026-04-22 18:13 | 53.77525 | -2.44451 | 32416 ft | 416 kts | 17° |
| 2026-04-22 18:13 | 53.82940 | -2.40986 | 32412 ft | 416 kts | 17° |
| 2026-04-22 18:14 | 53.88362 | -2.37515 | 32413 ft | 416 kts | 17° |
| 2026-04-22 18:14 | 53.93773 | -2.34027 | 32414 ft | 416 kts | 17° |
| 2026-04-22 18:15 | 53.98306 | -2.31492 | 32422 ft | 411 kts | 6° |
| 2026-04-22 18:15 | 54.02079 | -2.31000 | 32426 ft | 404 kts | 352° |
| 2026-04-22 18:15 | 54.04845 | -2.31634 | 32430 ft | 399 kts | 342° |
| 2026-04-22 18:16 | 54.10019 | -2.34796 | 32413 ft | 395 kts | 334° |
| 2026-04-22 18:16 | 54.15094 | -2.38291 | 32424 ft | 396 kts | 334° |
| 2026-04-22 18:17 | 54.20229 | -2.41846 | 32420 ft | 396 kts | 335° |
| 2026-04-22 18:17 | 54.25336 | -2.45406 | 32436 ft | 396 kts | 334° |
| 2026-04-22 18:18 | 54.30439 | -2.48978 | 32435 ft | 396 kts | 334° |
| 2026-04-22 18:18 | 54.35550 | -2.52553 | 32447 ft | 396 kts | 334° |
| 2026-04-22 18:19 | 54.40658 | -2.56129 | 32446 ft | 397 kts | 334° |
| 2026-04-22 18:19 | 54.45764 | -2.59728 | 32441 ft | 397 kts | 334° |
| 2026-04-22 18:20 | 54.50850 | -2.63330 | 32440 ft | 397 kts | 334° |
| 2026-04-22 18:20 | 54.55971 | -2.66956 | 32416 ft | 403 kts | 334° |
| 2026-04-22 18:20 | 54.58591 | -2.68812 | 31649 ft | 411 kts | 334° |
| 2026-04-22 18:21 | 54.61187 | -2.70654 | 31161 ft | 407 kts | 334° |
| 2026-04-22 18:21 | 54.63792 | -2.72505 | 30703 ft | 402 kts | 334° |
| 2026-04-22 18:21 | 54.66369 | -2.74340 | 30192 ft | 398 kts | 334° |
| 2026-04-22 18:21 | 54.68912 | -2.76152 | 29753 ft | 392 kts | 334° |
| 2026-04-22 18:22 | 54.71413 | -2.77937 | 29316 ft | 387 kts | 334° |
| 2026-04-22 18:22 | 54.73879 | -2.79700 | 28906 ft | 381 kts | 334° |
| 2026-04-22 18:22 | 54.76313 | -2.81447 | 28475 ft | 376 kts | 334° |
| 2026-04-22 18:22 | 54.78698 | -2.83157 | 28064 ft | 371 kts | 334° |
| 2026-04-22 18:23 | 54.81068 | -2.84860 | 27642 ft | 366 kts | 334° |
| 2026-04-22 18:23 | 54.83409 | -2.86544 | 27230 ft | 363 kts | 334° |
| 2026-04-22 18:23 | 54.85729 | -2.88214 | 26804 ft | 359 kts | 334° |
| 2026-04-22 18:24 | 54.90353 | -2.91556 | 25925 ft | 366 kts | 334° |
| 2026-04-22 18:24 | 54.92714 | -2.93264 | 25355 ft | 368 kts | 335° |
| 2026-04-22 18:24 | 54.97432 | -2.96675 | 24343 ft | 367 kts | 334° |
| 2026-04-22 18:25 | 54.99790 | -2.98382 | 23769 ft | 367 kts | 334° |
| 2026-04-22 18:25 | 55.02138 | -3.00083 | 23253 ft | 365 kts | 335° |
| 2026-04-22 18:25 | 55.04476 | -3.01780 | 22748 ft | 363 kts | 334° |
| 2026-04-22 18:26 | 55.09124 | -3.05172 | 21733 ft | 361 kts | 335° |
| 2026-04-22 18:26 | 55.11434 | -3.06863 | 21235 ft | 361 kts | 335° |
| 2026-04-22 18:26 | 55.12972 | -3.07988 | 20899 ft | 361 kts | 336° |
| 2026-04-22 18:26 | 55.15283 | -3.09678 | 20478 ft | 358 kts | 335° |
| 2026-04-22 18:27 | 55.17584 | -3.11363 | 19756 ft | 365 kts | 335° |
| 2026-04-22 18:27 | 55.19961 | -3.13110 | 19109 ft | 371 kts | 336° |
| 2026-04-22 18:27 | 55.22322 | -3.14845 | 18773 ft | 366 kts | 336° |
| 2026-04-22 18:27 | 55.24667 | -3.16569 | 18309 ft | 364 kts | 336° |
| 2026-04-22 18:28 | 55.26998 | -3.18282 | 17830 ft | 362 kts | 336° |
| 2026-04-22 18:28 | 55.29369 | -3.19672 | 17332 ft | 362 kts | 348° |
| 2026-04-22 18:28 | 55.31854 | -3.20060 | 17094 ft | 355 kts | 2° |
| 2026-04-22 18:28 | 55.34277 | -3.19714 | 16952 ft | 344 kts | 5° |
| 2026-04-22 18:29 | 55.36646 | -3.19839 | 16657 ft | 339 kts | 347° |
| 2026-04-22 18:29 | 55.38828 | -3.21260 | 16341 ft | 333 kts | 327° |
| 2026-04-22 18:29 | 55.40720 | -3.23569 | 16027 ft | 329 kts | 322° |
| 2026-04-22 18:29 | 55.42576 | -3.25929 | 15618 ft | 330 kts | 322° |
| 2026-04-22 18:30 | 55.44436 | -3.28299 | 15066 ft | 334 kts | 322° |
| 2026-04-22 18:30 | 55.48260 | -3.33179 | 13221 ft | 342 kts | 323° |
| 2026-04-22 18:30 | 55.50153 | -3.35607 | 12785 ft | 329 kts | 322° |
| 2026-04-22 18:31 | 55.51928 | -3.38052 | 12256 ft | 319 kts | 320° |
| 2026-04-22 18:31 | 55.53615 | -3.40530 | 11792 ft | 312 kts | 319° |
| 2026-04-22 18:31 | 55.55253 | -3.43008 | 11335 ft | 308 kts | 318° |
| 2026-04-22 18:31 | 55.56853 | -3.45442 | 10891 ft | 300 kts | 318° |
| 2026-04-22 18:32 | 55.58414 | -3.47809 | 10453 ft | 293 kts | 319° |
| 2026-04-22 18:32 | 55.59960 | -3.50146 | 10001 ft | 292 kts | 319° |
| 2026-04-22 18:32 | 55.61516 | -3.52482 | 9559 ft | 294 kts | 319° |
| 2026-04-22 18:32 | 55.63070 | -3.54802 | 9122 ft | 291 kts | 319° |
| 2026-04-22 18:33 | 55.64604 | -3.57091 | 8703 ft | 284 kts | 319° |
| 2026-04-22 18:33 | 55.66095 | -3.59321 | 8285 ft | 276 kts | 320° |
| 2026-04-22 18:33 | 55.67536 | -3.61477 | 7893 ft | 267 kts | 320° |
| 2026-04-22 18:33 | 55.68942 | -3.63581 | 7513 ft | 264 kts | 320° |
| 2026-04-22 18:34 | 55.70341 | -3.65648 | 7118 ft | 260 kts | 321° |
| 2026-04-22 18:34 | 55.71742 | -3.67681 | 6732 ft | 261 kts | 321° |
| 2026-04-22 18:34 | 55.73154 | -3.69725 | 6327 ft | 262 kts | 321° |
| 2026-04-22 18:34 | 55.74570 | -3.71773 | 5939 ft | 262 kts | 321° |
| 2026-04-22 18:35 | 55.75967 | -3.73864 | 5558 ft | 263 kts | 318° |
| 2026-04-22 18:35 | 55.77291 | -3.76067 | 5175 ft | 257 kts | 320° |
| 2026-04-22 18:35 | 55.78785 | -3.77578 | 5071 ft | 241 kts | 350° |
| 2026-04-22 18:35 | 55.80370 | -3.77493 | 5026 ft | 221 kts | 23° |
| 2026-04-22 18:36 | 55.81608 | -3.76155 | 4958 ft | 201 kts | 52° |
| 2026-04-22 18:36 | 55.82386 | -3.74169 | 4780 ft | 196 kts | 63° |
| 2026-04-22 18:36 | 55.83093 | -3.72096 | 4526 ft | 197 kts | 64° |
| 2026-04-22 18:36 | 55.83803 | -3.70025 | 4306 ft | 194 kts | 64° |
| 2026-04-22 18:37 | 55.84500 | -3.68000 | 4018 ft | 189 kts | 63° |
| 2026-04-22 18:37 | 55.85177 | -3.66029 | 3753 ft | 184 kts | 63° |
| 2026-04-22 18:37 | 55.85826 | -3.64136 | 3519 ft | 179 kts | 63° |
| 2026-04-22 18:37 | 55.86460 | -3.62287 | 3277 ft | 174 kts | 63° |
| 2026-04-22 18:38 | 55.87076 | -3.60489 | 3053 ft | 170 kts | 63° |
| 2026-04-22 18:38 | 55.87686 | -3.58709 | 2819 ft | 166 kts | 63° |
| 2026-04-22 18:38 | 55.88279 | -3.56975 | 2594 ft | 164 kts | 63° |
| 2026-04-22 18:39 | 55.89452 | -3.53542 | 2137 ft | 158 kts | 61° |
| 2026-04-22 18:39 | 55.90009 | -3.51912 | 1913 ft | 153 kts | 61° |
| 2026-04-22 18:39 | 55.90543 | -3.50349 | 1716 ft | 142 kts | 63° |
| 2026-04-22 18:39 | 55.91035 | -3.48909 | 1523 ft | 130 kts | 63° |
| 2026-04-22 18:40 | 55.91496 | -3.47552 | 1349 ft | 125 kts | 63° |
| 2026-04-22 18:40 | 55.91939 | -3.46227 | 1142 ft | 122 kts | 63° |
| 2026-04-22 18:40 | 55.92379 | -3.44917 | 990 ft | 124 kts | 62° |
| 2026-04-22 18:40 | 55.92833 | -3.43619 | 797 ft | 123 kts | 59° |
| 2026-04-22 18:41 | 55.93279 | -3.42322 | 647 ft | 123 kts | 60° |
| 2026-04-22 18:41 | 55.93720 | -3.41033 | 458 ft | 122 kts | 60° |
| 2026-04-22 18:41 | 55.94158 | -3.39725 | 295 ft | 123 kts | 60° |
| 2026-04-22 18:41 | 55.94587 | -3.38460 | 139 ft | 121 kts | 59° |
| 2026-04-22 18:42 | 55.94929 | -3.37468 | 112 ft | 96 kts | 57° |
| 2026-04-22 18:42 | 55.95104 | -3.36948 | 113 ft | 66 kts | 56° |
| 2026-04-22 18:42 | 55.95256 | -3.36503 | 111 ft | 18 kts | 59° |
| 2026-04-22 18:42 | 55.95270 | -3.36460 | 111 ft | 3 kts | 64° |
| 2026-04-22 18:43 | 55.95256 | -3.36412 | 109 ft | 7 kts | 142° |
| 2026-04-22 18:43 | 55.95219 | -3.36378 | 113 ft | 4 kts | 151° |
| 2026-04-22 18:43 | 55.95198 | -3.36357 | 112 ft | 3 kts | 150° |
| 2026-04-22 18:43 | 55.95178 | -3.36336 | 113 ft | 4 kts | 148° |
| 2026-04-22 18:44 | 55.95150 | -3.36310 | 115 ft | 6 kts | 163° |
| 2026-04-22 18:44 | 55.95137 | -3.36310 | 116 ft | 0 kts | 184° |
| 2026-04-22 18:44 | 55.95131 | -3.36314 | 116 ft | 2 kts | 197° |
| 2026-04-22 18:44 | 55.95128 | -3.36316 | 116 ft | 0 kts | 204° |
| 2026-04-22 18:45 | 55.95115 | -3.36335 | 113 ft | 5 kts | 225° |
| 2026-04-22 18:45 | 55.95091 | -3.36408 | 113 ft | 9 kts | 239° |
| 2026-04-22 18:45 | 55.95053 | -3.36515 | 114 ft | 12 kts | 236° |
| 2026-04-22 18:45 | 55.95006 | -3.36660 | 115 ft | 15 kts | 238° |
| 2026-04-22 18:46 | 55.94958 | -3.36796 | 114 ft | 7 kts | 235° |
| 2026-04-22 18:46 | 55.94908 | -3.36814 | 116 ft | 9 kts | 159° |
| 2026-04-22 18:46 | 55.94841 | -3.36780 | 116 ft | 9 kts | 175° |
| 2026-04-22 18:46 | 55.94793 | -3.36775 | 116 ft | 7 kts | 172° |
| 2026-04-22 18:47 | 55.94747 | -3.36745 | 114 ft | 8 kts | 165° |
| 2026-04-22 18:47 | 55.94697 | -3.36736 | 116 ft | 0 kts | 179° |
| 2026-04-22 18:47 | 55.94688 | -3.36735 | 116 ft | 1 kts | 179° |
| 2026-04-22 18:47 | 55.94676 | -3.36735 | 116 ft | 0 kts | 179° |
| 2026-04-22 18:48 | 55.94675 | -3.36735 | 116 ft | 0 kts | 179° |
| 2026-04-22 18:48 | 55.94673 | -3.36735 | 116 ft | 1 kts | 179° |
| 2026-04-22 18:48 | 55.94652 | -3.36734 | 116 ft | 5 kts | 179° |
| 2026-04-22 18:49 | 55.94617 | -3.36732 | 116 ft | 0 kts | 179° |
| 2026-04-22 18:49 | 55.94613 | -3.36726 | 116 ft | 1 kts | 141° |
| 2026-04-22 18:49 | 55.94611 | -3.36707 | 114 ft | 3 kts | 97° |
| 2026-04-22 18:49 | 55.94612 | -3.36660 | 116 ft | 2 kts | 90° |
| 2026-04-22 18:50 | 55.94612 | -3.36643 | 116 ft | 1 kts | 89° |
| 2026-04-22 18:50 | 55.94612 | -3.36625 | 116 ft | 0 kts | 89° |